Time;durP1;ratioP1;P1;durP2;ratioP2;P2;SDS_P1;SDS_P2;PMS_P1;PMS_P2;Temp;Humidity;BMP_temperature;BMP_pressure;BME280_temperature;BME280_humidity;BME280_pressure;Samples;Min_cycle;Max_cycle;Signal;HPM_P1;HPM_P2
2022/09/18 00:01:30;;;;;;;9.43;1.90;;;9.80;99.90;;;;;;6117513;23;20022;-88
2022/09/18 00:04:00;;;;;;;13.25;1.65;;;9.80;99.90;;;;;;6121737;23;20052;-92
2022/09/18 00:06:28;;;;;;;11.10;2.50;;;9.80;99.90;;;;;;6119155;23;20017;-90
2022/09/18 00:08:56;;;;;;;21.15;2.35;;;9.80;99.90;;;;;;6119089;23;20001;-93
2022/09/18 00:11:24;;;;;;;22.02;3.97;;;9.80;99.90;;;;;;6116060;23;20343;-93
2022/09/18 00:13:50;;;;;;;13.48;2.33;;;9.90;99.90;;;;;;6119239;23;20009;-89
2022/09/18 00:16:18;;;;;;;11.48;2.13;;;9.80;99.90;;;;;;6117232;23;19998;-91
2022/09/18 00:18:44;;;;;;;16.55;2.80;;;9.80;99.90;;;;;;6120227;23;20380;-91
2022/09/18 00:21:17;;;;;;;23.08;4.15;;;9.80;99.90;;;;;;6118763;23;19998;-88
2022/09/18 00:23:44;;;;;;;17.98;3.63;;;9.80;99.90;;;;;;6121087;23;20366;-86
2022/09/18 00:26:17;;;;;;;13.35;1.88;;;9.70;99.90;;;;;;6117220;23;20431;-92
2022/09/18 00:28:43;;;;;;;12.93;2.60;;;9.70;99.90;;;;;;6094788;23;20006;-94
2022/09/18 00:31:11;;;;;;;20.63;2.72;;;9.70;99.90;;;;;;6119486;23;20085;-90
2022/09/18 00:33:38;;;;;;;26.45;2.42;;;9.80;99.90;;;;;;6119298;23;20081;-90
2022/09/18 00:36:06;;;;;;;25.85;2.55;;;9.80;99.90;;;;;;6118465;23;20461;-90
2022/09/18 00:38:32;;;;;;;15.45;2.60;;;9.80;99.90;;;;;;6120260;23;20010;-94
2022/09/18 00:41:00;;;;;;;28.77;3.00;;;9.80;99.90;;;;;;6119095;23;20012;-88
2022/09/18 00:43:28;;;;;;;23.83;2.40;;;9.80;99.90;;;;;;6092076;23;20002;-91
2022/09/18 00:45:56;;;;;;;54.72;6.25;;;9.90;99.90;;;;;;6119138;23;20002;-91
2022/09/18 00:48:52;;;;;;;20.35;3.95;;;9.90;99.90;;;;;;6119296;23;20002;-90
2022/09/18 00:51:21;;;;;;;26.58;4.03;;;9.90;99.90;;;;;;6118895;23;20006;-91
2022/09/18 00:53:54;;;;;;;21.80;3.85;;;9.90;99.90;;;;;;6119986;23;20006;-88
2022/09/18 00:56:20;;;;;;;20.58;2.85;;;9.90;99.90;;;;;;6116180;23;20008;-92
2022/09/18 00:58:46;;;;;;;20.45;3.55;;;9.90;99.90;;;;;;6119755;23;20080;-90
2022/09/18 01:01:17;;;;;;;20.73;4.47;;;9.90;99.90;;;;;;6118052;23;20323;-93
2022/09/18 01:03:43;;;;;;;16.73;3.00;;;9.90;99.90;;;;;;6118714;23;20036;-91
2022/09/18 01:06:15;;;;;;;22.23;2.92;;;10.00;99.90;;;;;;6118659;23;19998;-92
2022/09/18 01:09:04;;;;;;;31.33;5.13;;;10.00;99.90;;;;;;6117380;23;20009;-90
2022/09/18 01:11:50;;;;;;;17.58;2.30;;;9.90;99.90;;;;;;6118315;23;20018;-91
2022/09/18 01:14:50;;;;;;;29.90;3.10;;;10.00;99.90;;;;;;6118944;23;20006;-90
2022/09/18 01:17:30;;;;;;;27.95;4.22;;;10.00;99.90;;;;;;6130898;23;20006;-90
2022/09/18 01:20:26;;;;;;;16.60;2.80;;;10.00;99.90;;;;;;6120076;23;20002;-94
2022/09/18 01:23:07;;;;;;;24.75;2.78;;;10.00;99.90;;;;;;6120037;23;20006;-89
2022/09/18 01:25:43;;;;;;;18.13;2.75;;;10.00;99.90;;;;;;6118920;23;20006;-90
2022/09/18 01:28:19;;;;;;;24.00;2.72;;;9.90;99.90;;;;;;6120423;23;20078;-93
2022/09/18 01:30:47;;;;;;;14.90;2.70;;;9.90;99.90;;;;;;6118340;23;20033;-95
2022/09/18 01:33:24;;;;;;;18.38;2.40;;;10.00;99.90;;;;;;6122591;23;20013;-94
2022/09/18 01:35:54;;;;;;;19.13;2.92;;;10.00;99.90;;;;;;6119196;23;20443;-88
2022/09/18 01:38:29;;;;;;;11.98;2.13;;;10.00;99.90;;;;;;6120934;23;20006;-94
2022/09/18 01:40:59;;;;;;;;;;;10.00;99.90;;;;;;6122206;23;20002;-95
2022/09/18 01:43:28;;;;;;;22.55;2.80;;;10.00;99.90;;;;;;6118234;23;19905;-91
2022/09/18 01:45:58;;;;;;;16.45;2.88;;;10.00;99.90;;;;;;6120885;23;20093;-93
2022/09/18 01:48:29;;;;;;;16.17;2.78;;;10.00;99.90;;;;;;6119114;23;20093;-94
2022/09/18 01:51:03;;;;;;;10.25;2.03;;;9.90;99.90;;;;;;6118343;23;20002;-93
2022/09/18 01:53:38;;;;;;;24.60;3.03;;;9.90;99.90;;;;;;6122753;23;20086;-91
2022/09/18 01:56:35;;;;;;;20.40;3.25;;;9.90;99.90;;;;;;6118945;23;20006;-91
2022/09/18 01:59:04;;;;;;;13.98;2.38;;;9.90;99.90;;;;;;6120197;23;20313;-94
2022/09/18 02:01:33;;;;;;;22.02;3.53;;;9.90;99.90;;;;;;6118219;23;20006;-92
2022/09/18 02:04:09;;;;;;;15.45;2.22;;;9.80;99.90;;;;;;6119689;23;19998;-95
2022/09/18 02:07:10;;;;;;;23.80;3.10;;;9.80;99.90;;;;;;6119387;23;20376;-93
2022/09/18 02:09:36;;;;;;;26.60;2.95;;;9.80;99.90;;;;;;6123125;23;20002;-93
2022/09/18 02:12:05;;;;;;;21.50;3.10;;;9.80;99.90;;;;;;6120281;23;20386;-91
2022/09/18 02:14:36;;;;;;;12.65;2.45;;;9.80;99.90;;;;;;6121978;23;20002;-95
2022/09/18 02:17:07;;;;;;;15.57;3.33;;;9.70;99.90;;;;;;6120584;23;20013;-96
2022/09/18 02:19:44;;;;;;;27.92;2.60;;;9.70;99.90;;;;;;6122125;23;20012;-91
2022/09/18 02:22:13;;;;;;;12.27;2.25;;;9.70;99.90;;;;;;6119689;23;20044;-92
2022/09/18 02:24:41;;;;;;;19.70;2.70;;;9.70;99.90;;;;;;6119131;23;20063;-90
2022/09/18 02:27:10;;;;;;;30.90;5.18;;;9.70;99.90;;;;;;6123773;23;20044;-95
2022/09/18 02:29:36;;;;;;;20.73;2.75;;;9.70;99.90;;;;;;6123822;23;20037;-91
2022/09/18 02:32:02;;;;;;;24.98;2.58;;;9.70;99.90;;;;;;6120900;23;20017;-94
2022/09/18 02:34:29;;;;;;;13.52;2.97;;;9.70;99.90;;;;;;6122028;23;20002;-91
2022/09/18 02:37:16;;;;;;;19.88;3.88;;;9.70;99.90;;;;;;6126298;23;20002;-94
2022/09/18 02:40:00;;;;;;;18.95;2.78;;;9.70;99.90;;;;;;6122162;23;20257;-93
2022/09/18 02:42:32;;;;;;;13.90;2.75;;;9.60;99.90;;;;;;6119607;23;20045;-90
2022/09/18 02:45:09;;;;;;;23.63;3.42;;;9.70;99.90;;;;;;6121819;23;20010;-94
2022/09/18 02:48:08;;;;;;;22.77;3.13;;;9.70;99.90;;;;;;6121373;23;20538;-92
2022/09/18 02:50:42;;;;;;;18.90;2.80;;;9.70;99.90;;;;;;6123683;23;20021;-94
2022/09/18 02:53:07;;;;;;;12.73;2.08;;;9.70;99.90;;;;;;6122388;23;20014;-94
2022/09/18 02:55:44;;;;;;;19.27;2.63;;;9.70;99.90;;;;;;6121712;23;20351;-92
2022/09/18 02:58:42;;;;;;;20.02;2.70;;;9.80;99.90;;;;;;6122202;23;20362;-90
2022/09/18 03:01:10;;;;;;;21.50;2.58;;;9.80;99.90;;;;;;6109676;23;20036;-93
2022/09/18 03:03:37;;;;;;;21.08;2.90;;;9.80;99.90;;;;;;6121267;23;20005;-94
2022/09/18 03:06:04;;;;;;;11.25;2.08;;;9.80;99.90;;;;;;6118956;23;20002;-94
2022/09/18 03:08:31;;;;;;;20.83;2.90;;;9.80;99.90;;;;;;6120786;23;20010;-96
2022/09/18 03:10:56;;;;;;;10.10;1.92;;;9.90;99.90;;;;;;6118721;23;20423;-95
2022/09/18 03:13:22;;;;;;;19.63;2.75;;;9.80;99.90;;;;;;6121991;23;20017;-92
2022/09/18 03:15:47;;;;;;;14.18;2.92;;;9.90;99.90;;;;;;6119118;23;20002;-94
2022/09/18 03:18:13;;;;;;;25.85;3.92;;;9.80;99.90;;;;;;6121983;23;20006;-93
2022/09/18 03:20:41;;;;;;;14.10;2.42;;;9.90;99.90;;;;;;6120854;23;20009;-90
2022/09/18 03:23:07;;;;;;;14.70;2.65;;;9.80;99.90;;;;;;6121203;23;20002;-87
2022/09/18 03:25:33;;;;;;;18.60;2.55;;;9.80;99.90;;;;;;6121126;23;20088;-93
2022/09/18 03:27:58;;;;;;;8.18;1.83;;;9.90;99.90;;;;;;6119935;23;20002;-94
2022/09/18 03:30:24;;;;;;;15.63;2.67;;;9.80;99.90;;;;;;6120448;23;20049;-91
2022/09/18 03:32:50;;;;;;;19.05;2.22;;;9.80;99.90;;;;;;6118839;23;20010;-92
2022/09/18 03:35:21;;;;;;;21.80;3.80;;;9.80;99.90;;;;;;6120599;23;20422;-94
2022/09/18 03:37:47;;;;;;;17.42;2.83;;;9.80;99.90;;;;;;6118912;23;19998;-92
2022/09/18 03:40:14;;;;;;;11.60;1.67;;;9.80;99.90;;;;;;6119174;23;20002;-92
2022/09/18 03:42:43;;;;;;;14.07;1.85;;;9.80;99.90;;;;;;6119320;23;20432;-90
2022/09/18 03:45:10;;;;;;;10.75;2.30;;;9.80;99.90;;;;;;6120213;23;20431;-93
2022/09/18 03:47:35;;;;;;;11.40;2.65;;;9.70;99.90;;;;;;6120874;23;20009;-89
2022/09/18 03:50:01;;;;;;;14.43;2.72;;;9.80;99.90;;;;;;6122373;23;19998;-93
2022/09/18 03:52:27;;;;;;;15.93;3.22;;;9.70;99.90;;;;;;6120250;23;20020;-93
2022/09/18 03:54:53;;;;;;;20.15;2.40;;;9.70;99.90;;;;;;6117939;23;20081;-91
2022/09/18 03:57:19;;;;;;;11.60;2.10;;;9.70;99.90;;;;;;6120098;23;20002;-90
2022/09/18 03:59:44;;;;;;;12.43;2.40;;;9.70;99.90;;;;;;6118740;23;20451;-91
2022/09/18 04:02:10;;;;;;;20.55;2.67;;;9.70;99.90;;;;;;6117602;23;20005;-93
2022/09/18 04:04:36;;;;;;;21.13;3.50;;;9.70;99.90;;;;;;6121741;23;20013;-89
2022/09/18 04:07:01;;;;;;;12.60;1.90;;;9.70;99.90;;;;;;6122693;23;20003;-94
2022/09/18 04:09:27;;;;;;;11.48;2.17;;;9.70;99.90;;;;;;6122371;23;20013;-94
2022/09/18 04:11:53;;;;;;;16.08;2.45;;;9.60;99.90;;;;;;6091901;23;20060;-91
2022/09/18 04:14:18;;;;;;;14.77;2.17;;;9.60;99.90;;;;;;6121001;23;20399;-92
2022/09/18 04:16:44;;;;;;;20.20;2.53;;;9.70;99.90;;;;;;6122393;23;20002;-94
2022/09/18 04:19:10;;;;;;;15.95;2.78;;;9.70;99.90;;;;;;6122975;23;19998;-94
2022/09/18 04:21:35;;;;;;;14.15;3.60;;;9.70;99.90;;;;;;6125752;23;20010;-96
2022/09/18 04:24:01;;;;;;;20.13;2.63;;;9.70;99.90;;;;;;6127994;23;20002;-95
2022/09/18 04:26:26;;;;;;;16.13;2.70;;;9.70;99.90;;;;;;6126779;23;19990;-96
2022/09/18 04:28:52;;;;;;;12.07;2.35;;;9.60;99.90;;;;;;6121720;23;20002;-91
2022/09/18 04:31:18;;;;;;;17.33;2.90;;;9.70;99.90;;;;;;6122539;23;20006;-94
2022/09/18 04:33:43;;;;;;;22.67;3.05;;;9.60;99.90;;;;;;6122823;23;20010;-89
2022/09/18 04:36:09;;;;;;;27.40;2.78;;;9.60;99.90;;;;;;6120024;23;19998;-92
2022/09/18 04:38:35;;;;;;;21.08;2.53;;;9.60;99.90;;;;;;6122256;23;19998;-92
2022/09/18 04:41:00;;;;;;;14.98;2.17;;;9.60;99.90;;;;;;6125246;23;20006;-94
2022/09/18 04:43:27;;;;;;;21.88;2.70;;;9.60;99.90;;;;;;6124018;23;20017;-93
2022/09/18 04:45:53;;;;;;;23.08;2.42;;;9.60;99.90;;;;;;6123999;23;20005;-89
2022/09/18 04:48:20;;;;;;;18.35;2.00;;;9.60;99.90;;;;;;6123007;23;20010;-93
2022/09/18 04:50:47;;;;;;;7.95;1.63;;;9.60;99.90;;;;;;6123487;23;19998;-96
2022/09/18 04:53:13;;;;;;;18.70;2.78;;;9.60;99.90;;;;;;6122275;23;20018;-87
2022/09/18 04:55:41;;;;;;;17.75;2.35;;;9.60;99.90;;;;;;6121715;23;20006;-94
2022/09/18 04:58:07;;;;;;;18.20;2.00;;;9.60;99.90;;;;;;6118074;23;20492;-92
2022/09/18 05:00:34;;;;;;;17.58;2.90;;;9.60;99.90;;;;;;6123542;23;20006;-92
2022/09/18 05:03:00;;;;;;;12.13;2.08;;;9.60;99.90;;;;;;6121201;23;20013;-88
2022/09/18 05:05:32;;;;;;;14.00;2.83;;;9.70;99.90;;;;;;6120201;23;20328;-89
2022/09/18 05:07:59;;;;;;;17.75;2.05;;;9.70;99.90;;;;;;6117958;23;20010;-89
2022/09/18 05:10:25;;;;;;;12.07;1.58;;;9.70;99.90;;;;;;6120965;23;20077;-96
2022/09/18 05:12:51;;;;;;;17.20;2.33;;;9.70;99.90;;;;;;6119714;23;20396;-92
2022/09/18 05:15:18;;;;;;;18.48;3.28;;;9.70;99.90;;;;;;6121771;23;20013;-88
2022/09/18 05:17:44;;;;;;;15.82;2.35;;;9.70;99.90;;;;;;6121716;23;20063;-89
2022/09/18 05:20:10;;;;;;;13.15;2.47;;;9.80;99.90;;;;;;6119888;23;20037;-89
2022/09/18 05:22:35;;;;;;;8.95;1.70;;;9.80;99.90;;;;;;6119131;23;20072;-89
2022/09/18 05:25:02;;;;;;;9.70;2.08;;;9.80;99.90;;;;;;6120874;23;20089;-95
2022/09/18 05:27:27;;;;;;;12.00;1.92;;;9.80;99.90;;;;;;6118650;23;19998;-89
2022/09/18 05:29:53;;;;;;;19.80;2.75;;;9.80;99.90;;;;;;6119612;23;20079;-91
2022/09/18 05:32:21;;;;;;;8.93;2.13;;;9.80;99.90;;;;;;6119888;23;20032;-90
2022/09/18 05:34:48;;;;;;;16.77;1.90;;;9.90;99.90;;;;;;6119882;23;20039;-90
2022/09/18 05:37:15;;;;;;;19.27;3.70;;;9.90;99.90;;;;;;6119848;23;20038;-94
2022/09/18 05:39:41;;;;;;;14.40;2.85;;;10.00;99.90;;;;;;6095407;23;20035;-92
2022/09/18 05:42:07;;;;;;;24.27;2.53;;;10.00;99.90;;;;;;6113388;23;20013;-90
2022/09/18 05:44:32;;;;;;;13.07;2.38;;;10.00;99.90;;;;;;6116612;23;20022;-90
2022/09/18 05:46:58;;;;;;;9.60;2.08;;;10.00;99.90;;;;;;6115928;23;20555;-90
2022/09/18 05:49:24;;;;;;;16.15;3.45;;;10.00;99.90;;;;;;6117957;23;20038;-90
2022/09/18 05:51:49;;;;;;;19.65;2.30;;;10.00;99.90;;;;;;6118168;23;20010;-92
2022/09/18 05:54:15;;;;;;;7.80;2.17;;;10.00;99.90;;;;;;6120459;23;20003;-93
2022/09/18 05:56:41;;;;;;;8.63;2.13;;;10.00;99.90;;;;;;6117752;23;20021;-89
2022/09/18 05:59:06;;;;;;;11.75;1.63;;;10.10;99.90;;;;;;6117708;23;20323;-91
2022/09/18 06:01:32;;;;;;;11.32;2.83;;;10.20;99.90;;;;;;6114515;23;20013;-87
2022/09/18 06:03:58;;;;;;;11.60;1.92;;;10.20;99.90;;;;;;6119346;23;20010;-87
2022/09/18 06:06:27;;;;;;;26.60;2.83;;;10.30;99.90;;;;;;6118276;23;20063;-90
2022/09/18 06:08:52;;;;;;;14.45;2.63;;;10.30;99.90;;;;;;6117985;23;20002;-94
2022/09/18 06:11:18;;;;;;;14.30;2.13;;;10.40;99.90;;;;;;6119926;23;20012;-85
2022/09/18 06:13:47;;;;;;;16.33;1.95;;;10.40;99.90;;;;;;6117987;23;20010;-93
2022/09/18 06:16:14;;;;;;;16.92;3.08;;;10.50;99.90;;;;;;6119327;23;20376;-88
2022/09/18 06:18:39;;;;;;;18.58;3.65;;;10.50;99.90;;;;;;6118286;23;20081;-92
2022/09/18 06:21:05;;;;;;;20.55;2.22;;;10.50;99.90;;;;;;6117730;23;20033;-90
2022/09/18 06:23:34;;;;;;;25.85;4.57;;;10.40;99.90;;;;;;6119190;23;20072;-88
2022/09/18 06:26:04;;;;;;;9.65;1.70;;;10.40;99.90;;;;;;6121808;23;19998;-91
2022/09/18 06:28:31;;;;;;;8.25;1.60;;;10.40;99.90;;;;;;6120844;23;20002;-90
2022/09/18 06:31:01;;;;;;;19.23;2.42;;;10.50;99.90;;;;;;6121478;23;19998;-90
2022/09/18 06:33:30;;;;;;;19.40;2.15;;;10.50;99.90;;;;;;6121305;23;20064;-94
2022/09/18 06:35:56;;;;;;;13.50;1.80;;;10.50;99.90;;;;;;6121401;23;20069;-91
2022/09/18 06:38:25;;;;;;;12.40;2.28;;;10.60;99.90;;;;;;6119621;23;20002;-87
2022/09/18 06:40:52;;;;;;;13.35;2.30;;;10.80;99.90;;;;;;6121103;23;20032;-86
2022/09/18 06:43:18;;;;;;;14.30;1.88;;;10.80;99.90;;;;;;6118862;23;20063;-94
2022/09/18 06:45:50;;;;;;;12.27;2.20;;;10.80;99.90;;;;;;6120792;23;20026;-90
2022/09/18 06:48:16;;;;;;;18.75;2.75;;;10.80;99.90;;;;;;6119987;23;20323;-92
2022/09/18 06:50:41;;;;;;;9.60;1.77;;;10.80;99.90;;;;;;6120254;23;20006;-90
2022/09/18 06:53:07;;;;;;;12.13;2.08;;;10.80;99.90;;;;;;6119584;23;20072;-92
2022/09/18 06:55:32;;;;;;;19.00;3.17;;;10.80;99.90;;;;;;6119473;23;20006;-90
2022/09/18 06:57:59;;;;;;;17.83;2.60;;;10.90;99.90;;;;;;6118692;23;20099;-93
2022/09/18 07:00:26;;;;;;;8.77;1.58;;;10.90;99.90;;;;;;6117867;23;20045;-93
2022/09/18 07:02:56;;;;;;;12.90;1.95;;;10.90;99.90;;;;;;6116649;23;20378;-94
2022/09/18 07:05:32;;;;;;;15.75;1.75;;;11.10;99.90;;;;;;6119484;23;19998;-89
2022/09/18 07:07:58;;;;;;;14.13;2.30;;;11.10;99.90;;;;;;6091739;23;20051;-89
2022/09/18 07:10:26;;;;;;;15.40;2.47;;;11.20;99.90;;;;;;6120261;23;20533;-92
2022/09/18 07:12:59;;;;;;;8.57;2.03;;;11.20;99.90;;;;;;6118812;23;20439;-91
2022/09/18 07:15:28;;;;;;;11.90;2.13;;;11.30;99.90;;;;;;6119305;23;20009;-90
2022/09/18 07:17:55;;;;;;;13.27;3.15;;;11.30;99.90;;;;;;6119234;23;20013;-90
2022/09/18 07:20:21;;;;;;;8.05;2.17;;;11.30;99.90;;;;;;6120569;23;20002;-89
2022/09/18 07:22:55;;;;;;;15.43;2.42;;;11.30;99.90;;;;;;6119861;23;20560;-91
2022/09/18 07:25:21;;;;;;;14.90;2.47;;;11.20;99.90;;;;;;6118904;23;20044;-85
2022/09/18 07:27:47;;;;;;;10.63;1.90;;;11.10;99.90;;;;;;6119627;23;20010;-90
2022/09/18 07:30:13;;;;;;;15.60;2.38;;;11.10;99.90;;;;;;6119483;23;20001;-90
2022/09/18 07:32:39;;;;;;;8.60;1.73;;;11.00;99.90;;;;;;6118236;23;20018;-89
2022/09/18 07:35:04;;;;;;;13.50;1.63;;;11.00;99.90;;;;;;6119896;23;20081;-93
2022/09/18 07:37:32;;;;;;;26.58;4.85;;;10.90;99.90;;;;;;6117607;23;20006;-90
2022/09/18 07:39:58;;;;;;;9.00;2.10;;;10.90;99.90;;;;;;6119883;23;20006;-94
2022/09/18 07:42:29;;;;;;;13.27;2.05;;;11.00;99.90;;;;;;6118835;23;20016;-92
2022/09/18 07:44:55;;;;;;;10.68;3.58;;;10.90;99.90;;;;;;6120121;23;20006;-92
2022/09/18 07:47:20;;;;;;;8.55;1.92;;;10.90;99.90;;;;;;6118817;23;20009;-94
2022/09/18 07:49:46;;;;;;;12.95;2.30;;;10.90;99.90;;;;;;6120617;23;20063;-93
2022/09/18 07:52:12;;;;;;;10.27;1.70;;;11.00;99.90;;;;;;6118924;23;20458;-90
2022/09/18 07:54:37;;;;;;;11.45;1.73;;;11.10;99.90;;;;;;6117887;23;20001;-92
2022/09/18 07:57:03;;;;;;;10.20;2.22;;;11.20;99.90;;;;;;6119795;23;20379;-88
2022/09/18 07:59:29;;;;;;;11.15;1.73;;;11.30;99.90;;;;;;6120418;23;20002;-93
2022/09/18 08:01:54;;;;;;;6.65;1.42;;;11.30;99.90;;;;;;6118548;23;20002;-94
2022/09/18 08:04:21;;;;;;;7.82;1.40;;;11.30;99.90;;;;;;6120587;23;20431;-90
2022/09/18 08:06:51;;;;;;;12.48;1.95;;;11.30;99.90;;;;;;6118959;23;20059;-87
2022/09/18 08:09:17;;;;;;;9.20;1.45;;;11.30;99.90;;;;;;6120392;23;20100;-92
2022/09/18 08:11:43;;;;;;;9.63;2.15;;;11.40;99.90;;;;;;6119293;23;20514;-92
2022/09/18 08:14:09;;;;;;;7.05;1.42;;;11.40;99.90;;;;;;6116438;23;20021;-91
2022/09/18 08:16:35;;;;;;;10.15;1.98;;;11.40;99.90;;;;;;6118185;23;20009;-88
2022/09/18 08:19:00;;;;;;;7.13;1.40;;;11.40;99.90;;;;;;6093561;23;20010;-92
2022/09/18 08:21:28;;;;;;;4.30;1.38;;;11.50;99.90;;;;;;6119447;23;20002;-85
2022/09/18 08:23:53;;;;;;;8.40;1.60;;;11.60;99.90;;;;;;6118741;23;20026;-94
2022/09/18 08:26:19;;;;;;;10.85;1.60;;;11.60;99.90;;;;;;6119704;23;20009;-93
2022/09/18 08:28:47;;;;;;;7.38;1.60;;;11.70;99.90;;;;;;6119265;23;20435;-93
2022/09/18 08:31:13;;;;;;;6.05;1.80;;;11.60;99.90;;;;;;6120946;23;20012;-88
2022/09/18 08:33:39;;;;;;;8.90;1.55;;;11.70;99.90;;;;;;6118425;23;20502;-92
2022/09/18 08:36:05;;;;;;;7.28;1.60;;;11.80;99.90;;;;;;6118376;23;20006;-86
2022/09/18 08:38:32;;;;;;;8.15;1.42;;;11.90;99.90;;;;;;6118619;23;20073;-85
2022/09/18 08:41:02;;;;;;;6.30;1.23;;;12.00;99.90;;;;;;6118911;23;20002;-86
2022/09/18 08:43:33;;;;;;;7.10;1.35;;;12.00;99.90;;;;;;6117557;23;20077;-89
2022/09/18 08:46:05;;;;;;;6.82;1.55;;;12.10;99.90;;;;;;6118942;23;19994;-91
2022/09/18 08:48:37;;;;;;;8.82;2.08;;;12.10;99.90;;;;;;6117584;23;20002;-88
2022/09/18 08:51:15;;;;;;;11.15;1.80;;;12.10;99.90;;;;;;6117944;23;20002;-88
2022/09/18 08:53:44;;;;;;;7.40;1.48;;;12.20;99.90;;;;;;6118434;23;20014;-91
2022/09/18 08:56:22;;;;;;;6.97;1.40;;;12.40;99.90;;;;;;6118752;23;20002;-91
2022/09/18 08:58:51;;;;;;;4.35;1.15;;;12.40;99.90;;;;;;6117988;23;20029;-87
2022/09/18 09:01:18;;;;;;;8.70;2.58;;;12.40;99.90;;;;;;6118170;23;20030;-87
2022/09/18 09:04:09;;;;;;;10.75;1.52;;;12.50;99.90;;;;;;6119186;23;20002;-90
2022/09/18 09:07:02;;;;;;;8.77;1.92;;;12.50;99.90;;;;;;6120712;23;20013;-91
2022/09/18 09:10:02;;;;;;;13.68;1.98;;;12.60;99.90;;;;;;6119328;23;20009;-90
2022/09/18 09:12:38;;;;;;;10.77;1.75;;;12.60;99.90;;;;;;6118732;23;20014;-92
2022/09/18 09:15:29;;;;;;;;;;;12.70;99.90;;;;;;6119173;23;20055;-90
2022/09/18 09:18:10;;;;;;;10.10;1.73;;;12.70;99.90;;;;;;6117527;23;20370;-90
2022/09/18 09:20:50;;;;;;;10.23;1.73;;;12.80;99.90;;;;;;6120085;23;20003;-89
2022/09/18 09:23:18;;;;;;;9.35;1.73;;;12.80;99.90;;;;;;6119296;23;20009;-87
2022/09/18 09:25:52;;;;;;;7.38;2.42;;;12.90;99.90;;;;;;6119038;23;20461;-91
2022/09/18 09:28:24;;;;;;;16.08;2.33;;;13.00;99.90;;;;;;6092885;23;20028;-92
2022/09/18 09:30:54;;;;;;;5.05;1.38;;;13.00;99.90;;;;;;6118456;23;20007;-86
2022/09/18 09:33:37;;;;;;;11.15;1.35;;;13.00;99.90;;;;;;6118460;23;20014;-92
2022/09/18 09:36:12;;;;;;;7.38;1.50;;;13.00;99.90;;;;;;6119280;23;20230;-85
2022/09/18 09:38:47;;;;;;;8.48;1.60;;;13.00;99.90;;;;;;6118284;23;20026;-87
2022/09/18 09:41:23;;;;;;;8.93;1.58;;;12.90;99.90;;;;;;6119365;23;20002;-85
2022/09/18 09:44:22;;;;;;;14.30;2.03;;;12.90;99.90;;;;;;6118313;23;20033;-91
2022/09/18 09:47:12;;;;;;;8.73;1.27;;;12.90;99.90;;;;;;6119101;23;20010;-90
2022/09/18 09:49:50;;;;;;;7.00;1.20;;;12.90;99.90;;;;;;6118765;23;20032;-93
2022/09/18 09:52:27;;;;;;;7.10;1.35;;;12.90;99.90;;;;;;6118183;23;20380;-90
2022/09/18 09:55:18;;;;;;;13.55;2.08;;;12.80;99.90;;;;;;6118311;23;20030;-89
2022/09/18 09:58:21;;;;;;;13.07;2.38;;;12.80;99.90;;;;;;6121965;23;20088;-92
2022/09/18 10:01:00;;;;;;;10.50;1.35;;;12.70;99.90;;;;;;6119705;23;20060;-89
2022/09/18 10:03:45;;;;;;;6.97;1.52;;;12.70;99.90;;;;;;6117838;23;20098;-91
2022/09/18 10:06:36;;;;;;;9.93;1.70;;;12.60;99.90;;;;;;6119758;23;20002;-92
2022/09/18 10:09:14;;;;;;;11.65;1.30;;;12.60;99.90;;;;;;6119049;23;20222;-86
2022/09/18 10:11:42;;;;;;;9.02;1.15;;;12.50;99.90;;;;;;6119921;23;20443;-83
2022/09/18 10:14:21;;;;;;;6.78;1.30;;;12.50;99.90;;;;;;6116280;23;20006;-93
2022/09/18 10:16:51;;;;;;;5.28;1.20;;;12.50;99.90;;;;;;6120558;23;20024;-85
2022/09/18 10:19:19;;;;;;;1.40;1.05;;;12.50;99.90;;;;;;6118815;23;20006;-92
2022/09/18 10:21:46;;;;;;;4.72;1.02;;;12.50;99.90;;;;;;6118588;23;20005;-86
2022/09/18 10:24:33;;;;;;;6.05;1.65;;;12.60;99.90;;;;;;6117415;23;20096;-91
2022/09/18 10:27:08;;;;;;;4.65;1.40;;;12.70;99.90;;;;;;6119450;23;20009;-89
2022/09/18 10:29:34;;;;;;;3.17;1.08;;;12.80;99.90;;;;;;6094098;23;20096;-90
2022/09/18 10:32:00;;;;;;;4.18;1.52;;;12.80;99.90;;;;;;6119453;23;20056;-90
2022/09/18 10:34:39;;;;;;;4.30;1.20;;;12.80;99.90;;;;;;6118241;23;20088;-94
2022/09/18 10:37:27;;;;;;;5.97;1.10;;;12.80;99.90;;;;;;6121105;23;20002;-89
2022/09/18 10:39:58;;;;;;;4.88;1.05;;;12.80;99.90;;;;;;6119681;23;20339;-92
2022/09/18 10:42:34;;;;;;;5.55;1.00;;;12.80;99.90;;;;;;6118943;23;20511;-91
2022/09/18 10:45:04;;;;;;;6.78;1.20;;;12.70;99.90;;;;;;6119239;23;20391;-89
2022/09/18 10:47:34;;;;;;;6.28;1.02;;;12.60;99.90;;;;;;6119375;23;20002;-91
2022/09/18 10:50:18;;;;;;;6.05;1.10;;;12.50;99.90;;;;;;6119691;23;20199;-86
2022/09/18 10:52:47;;;;;;;5.50;0.88;;;12.50;99.90;;;;;;6118785;23;20018;-90
2022/09/18 10:55:26;;;;;;;4.78;1.15;;;12.50;99.90;;;;;;6120662;23;20063;-89
2022/09/18 10:58:09;;;;;;;2.95;0.80;;;12.50;99.90;;;;;;6119171;23;19998;-90
2022/09/18 11:00:47;;;;;;;2.75;0.88;;;12.50;99.90;;;;;;6118877;23;20082;-92
2022/09/18 11:03:59;;;;;;;1.60;0.85;;;12.60;99.90;;;;;;6092713;23;20009;-90
2022/09/18 11:06:27;;;;;;;20.13;12.27;;;12.60;99.90;;;;;;6151194;23;20395;-87
2022/09/18 11:08:55;;;;;;;3.92;2.40;;;12.60;99.90;;;;;;6121738;23;20374;-85
2022/09/18 11:11:26;;;;;;;1.55;0.98;;;12.50;99.90;;;;;;6118977;23;20060;-87
2022/09/18 11:14:00;;;;;;;5.28;3.55;;;12.40;99.90;;;;;;6119198;23;20006;-91
2022/09/18 11:16:29;;;;;;;3.22;0.98;;;12.40;99.90;;;;;;6117532;23;20082;-87
2022/09/18 11:19:11;;;;;;;1.17;0.50;;;12.30;99.90;;;;;;6118984;23;20002;-88
2022/09/18 11:21:49;;;;;;;5.95;3.28;;;12.20;99.90;;;;;;6094014;23;20450;-91
2022/09/18 11:24:34;;;;;;;4.93;3.13;;;12.20;99.90;;;;;;6119907;23;20009;-84
2022/09/18 11:27:02;;;;;;;1.30;1.10;;;12.20;99.90;;;;;;6120616;23;19998;-89
2022/09/18 11:29:38;;;;;;;0.57;0.57;;;12.10;99.90;;;;;;6118704;23;20071;-90
2022/09/18 11:32:20;;;;;;;6.65;3.00;;;12.00;99.90;;;;;;6120706;23;20128;-89
2022/09/18 11:35:02;;;;;;;0.60;0.50;;;11.90;99.90;;;;;;6118833;23;20002;-89
2022/09/18 11:37:45;;;;;;;9.90;5.20;;;11.90;99.90;;;;;;6118728;23;20436;-88
2022/09/18 11:40:41;;;;;;;1.70;0.75;;;11.80;99.90;;;;;;6118525;23;20010;-89
2022/09/18 11:43:14;;;;;;;1.75;1.27;;;11.70;99.90;;;;;;6118734;23;20029;-91
2022/09/18 11:45:54;;;;;;;1.55;0.68;;;11.50;99.90;;;;;;6118449;23;20101;-90
2022/09/18 11:48:26;;;;;;;0.70;0.60;;;11.50;99.90;;;;;;6116781;23;19998;-90
2022/09/18 11:50:55;;;;;;;0.68;0.68;;;11.40;99.90;;;;;;6120062;23;20318;-87
2022/09/18 11:53:43;;;;;;;2.45;2.00;;;11.40;99.90;;;;;;6118621;23;20083;-88
2022/09/18 11:56:18;;;;;;;0.57;0.50;;;11.40;99.90;;;;;;6119101;23;20001;-84
2022/09/18 11:59:03;;;;;;;0.68;0.40;;;11.40;99.90;;;;;;6118679;23;20002;-91
2022/09/18 12:01:44;;;;;;;2.75;1.25;;;11.40;99.90;;;;;;6118523;23;20309;-85
2022/09/18 12:04:40;;;;;;;1.05;0.40;;;11.40;99.90;;;;;;6118672;23;20484;-91
2022/09/18 12:07:31;;;;;;;2.42;1.17;;;11.30;99.90;;;;;;6120141;23;20017;-89
2022/09/18 12:10:23;;;;;;;0.43;0.43;;;11.30;99.90;;;;;;6116832;23;19994;-89
2022/09/18 12:12:59;;;;;;;0.55;0.40;;;11.30;99.90;;;;;;6117532;23;20038;-90
2022/09/18 12:15:37;;;;;;;0.73;0.60;;;11.40;99.90;;;;;;6092510;23;20133;-93
2022/09/18 12:18:20;;;;;;;1.40;0.88;;;11.40;99.90;;;;;;6116726;23;20010;-84
2022/09/18 12:20:54;;;;;;;4.28;1.83;;;11.40;99.90;;;;;;6118511;23;20006;-86
2022/09/18 12:23:24;;;;;;;4.30;1.10;;;11.50;99.90;;;;;;6114146;23;20010;-84
2022/09/18 12:26:37;;;;;;;2.45;0.90;;;11.50;99.90;;;;;;6118932;23;20024;-89
2022/09/18 12:29:22;;;;;;;1.30;0.65;;;11.50;99.90;;;;;;6118484;23;20005;-86
2022/09/18 12:32:13;;;;;;;0.70;0.70;;;11.50;99.90;;;;;;6118233;23;20018;-86
2022/09/18 12:34:44;;;;;;;1.65;0.73;;;11.60;99.90;;;;;;6117758;23;20006;-85
2022/09/18 12:37:31;;;;;;;2.05;1.35;;;11.60;99.90;;;;;;6119066;23;20002;-85
2022/09/18 12:40:22;;;;;;;2.50;0.95;;;11.60;99.90;;;;;;6116241;23;20013;-87
2022/09/18 12:43:16;;;;;;;0.80;0.50;;;11.60;99.90;;;;;;6117242;23;20005;-90
2022/09/18 12:46:00;;;;;;;2.58;0.80;;;11.60;99.90;;;;;;6117989;23;20307;-86
2022/09/18 12:48:56;;;;;;;0.50;0.50;;;11.70;99.90;;;;;;6115859;23;20009;-89
2022/09/18 12:51:35;;;;;;;;;;;11.80;99.90;;;;;;6119009;23;20009;-83
2022/09/18 12:54:15;;;;;;;0.68;0.40;;;11.80;99.90;;;;;;6116878;23;20263;-92
2022/09/18 12:57:02;;;;;;;1.58;0.80;;;11.90;99.90;;;;;;6118023;23;20009;-92
2022/09/18 12:59:58;;;;;;;2.83;0.63;;;11.90;99.90;;;;;;6117690;23;20029;-89
2022/09/18 13:02:28;;;;;;;;;;;11.90;99.90;;;;;;6119429;23;20038;-86
2022/09/18 13:05:04;;;;;;;1.75;0.50;;;11.90;99.90;;;;;;6117138;23;19911;-89
2022/09/18 13:07:40;;;;;;;1.88;1.02;;;11.80;99.90;;;;;;6116633;23;19998;-91
2022/09/18 13:10:26;;;;;;;2.45;0.98;;;11.80;99.90;;;;;;6116080;23;20385;-89
2022/09/18 13:13:18;;;;;;;2.65;0.90;;;11.80;99.90;;;;;;6118803;23;20009;-85